Airfield :
LOGIN :

Register | Disclaimer

   EN    FR    IT 

 










Legend :    VFR   Marginal VFR   IFR   Intensive IFR   Very Intensive IFR
Visi :
Ceiling :
>= 8 km
>= 3000ft
5 to 8 km
1000 to 3000 ft
1500m to 5 km
500 to 1000 ft
800 to 1500m
200 to 500 ft
< 800m
< 200 ft
Symbols :   Thunderstorms  Fog  Heavy snow  Heavy precipitations  Wind > 20 kt
SIGMETs :     Misc.  Thunderstorms  Icing  Turbulence  Mountain Waves  Volcanic Ashes







- Airport Elevation : 90 ft
- IATA code : NTE
- Download approach charts


LFRS - Nantes

CURRENT METAR :
  • 151230Z AUTO 14007KT 100V170 CAVOK 18/13 Q1018 NOSIG

EXPIRED METARs :
  • 151200Z AUTO 15007KT CAVOK 18/14 Q1018 NOSIG
  • 151130Z AUTO 14008KT 110V170 CAVOK 17/14 Q1019 NOSIG
  • 151100Z AUTO 14009KT CAVOK 16/13 Q1019 NOSIG
  • 151030Z AUTO 14010KT CAVOK 15/13 Q1019 BECMG 06004KT
  • 151000Z AUTO 13007KT CAVOK 14/13 Q1019 NOSIG

TAF TAF LFRS
Valid from the 15 at 12:00 until the 16 at 18:00 UTC


151100Z 1512/1618 10005KT CAVOK
BECMG 1518/1521 3000 BR BKN005
TEMPO 1521/1608 0500 FG VV///
BECMG 1610/1612 9999 NSW BKN020
ATIS : +33 2 40 05 12 74
No reported NOTAMs for that airfield.



MET'MAP, your aeronautical weather chart ! - Copyright ORBIFLY December 2007 - Disclaimer

ORBIFLY MET'MAP TEAM :

Programming & Development : Alexandra Zaïnal
Concept & Development : Baudouin d'Aumeries
Co-Development & Prog : Marc-Olivier Méhu
Technical & hardware support : Manuel Goepfert

Contact : metmap@orbifly.com




SOURCES & CREDITS :

   NOAA